Pink Coral — 9HPY9 — position and weather

sailwx.info

Track history (hours):
 
Tides and Currents Weather Stations Pressure Air Temp Water Temp Dewpoint Dewpoint Depression Visibility Wind Speed Wind Dir Waves Ship Positions

Pink Coral

Last reported at 2015-Mar-04 16:32 UTC. Time now 2015-Mar-04 22:48 UTC.
Position N 54°18' E 005°02'.

Length 183 m; draft 8.1 m.

Type: Tanker. MMSI: 249344000.

Date/timePositionNaut miles runAvg speedWind from/ knotsBaromVisibWave heightAir tempDewpointWater temp
2015-Mar-04 16:32N 54°18' E 005°02'1010.3
2015-Mar-04 15:32N 54°08' E 004°60'10 9.6
2015-Mar-04 14:31N 54°02' E 004°46'9910.5
2015-Mar-04 05:08N 52°33' E 003°35'4325.2
2015-Mar-04 03:25N 51°56' E 004°12'2023.0
2015-Mar-04 02:33N 52°05' E 003°44'9 8.8
2015-Mar-04 01:33N 52°01' E 003°57'1010.3
2015-Mar-04 00:33N 51°56' E 004°11'1 1.4
2015-Mar-03 23:31N 51°55' E 004°12'0 0.0
2015-Mar-03 22:31N 51°55' E 004°12'0 0.0
2015-Mar-03 21:32N 51°55' E 004°12'0 0.0
2015-Mar-03 20:32N 51°55' E 004°12'0 0.0
2015-Mar-03 19:29N 51°55' E 004°12'0 0.0
2015-Mar-03 18:31N 51°55' E 004°12'0 0.0
2015-Mar-03 17:31N 51°55' E 004°12'0 0.0
2015-Mar-03 16:29N 51°55' E 004°12'0 0.0
2015-Mar-03 15:31N 51°55' E 004°12'0 0.0
2015-Mar-03 14:32N 51°55' E 004°12'0 0.0
2015-Mar-03 13:31N 51°55' E 004°12'0 0.0
2015-Mar-03 12:31N 51°55' E 004°12'0 0.0
2015-Mar-03 11:28N 51°55' E 004°12'0 0.0
2015-Mar-03 10:28N 51°55' E 004°12'0 0.0
2015-Mar-03 09:31N 51°55' E 004°12'0 0.0
2015-Mar-03 08:32N 51°55' E 004°12'0 0.0
2015-Mar-03 07:31N 51°55' E 004°12'0 0.0
2015-Mar-03 06:31N 51°55' E 004°12'0 0.0
2015-Mar-03 05:25N 51°55' E 004°12'0 0.0
2015-Mar-03 04:31N 51°55' E 004°12'0 0.0
2015-Mar-03 03:31N 51°55' E 004°12'0 0.0
2015-Mar-03 02:31N 51°55' E 004°12'0 0.0
2015-Mar-03 01:28N 51°55' E 004°12'0 0.0
2015-Mar-03 00:31N 51°55' E 004°12'0 0.0
2015-Mar-02 23:31N 51°55' E 004°12'0 0.0
2015-Mar-02 22:31N 51°55' E 004°12'0 0.0
2015-Mar-02 21:31N 51°55' E 004°12'0 0.0
2015-Mar-02 20:31N 51°55' E 004°12'0 0.0
2015-Mar-02 19:28N 51°55' E 004°12'0 0.0
2015-Mar-02 18:31N 51°55' E 004°12'0 0.0
2015-Mar-02 17:31N 51°55' E 004°12'0 0.0
2015-Mar-02 16:31N 51°55' E 004°12'0 0.0
2015-Mar-02 15:31N 51°55' E 004°12'0 0.0
2015-Mar-02 14:31N 51°55' E 004°12'0 0.0
2015-Mar-02 13:28N 51°55' E 004°12'0 0.0
2015-Mar-02 12:31N 51°55' E 004°12'0 0.0
2015-Mar-02 11:31N 51°55' E 004°12'0 0.0
2015-Mar-02 10:31N 51°55' E 004°12'0 0.0
2015-Mar-02 09:31N 51°55' E 004°12'0 0.0
2015-Mar-02 08:33N 51°55' E 004°12'3 2.9
2015-Mar-02 07:33N 51°57' E 004°09'9 9.1
2015-Mar-02 06:33N 51°60' E 003°55'5 5.3
2015-Mar-02 05:33N 52°01' E 003°47'5 5.3
2015-Mar-02 04:33N 52°04' E 003°40'3 3.1
2015-Mar-02 03:33N 52°08' E 003°40'0 0.0
2015-Mar-02 02:30N 52°08' E 003°40'0 0.0
2015-Mar-02 01:24N 52°08' E 003°40'0 0.0
2015-Mar-02 00:33N 52°08' E 003°40'0 0.0
2015-Mar-01 23:28N 52°08' E 003°40'0 0.0
2015-Mar-01 22:28N 52°08' E 003°40'0 0.0
2015-Mar-01 21:19N 52°08' E 003°40'0 0.1
2015-Mar-01 20:31N 52°08' E 003°40'0 0.0
2015-Mar-01 19:31N 52°08' E 003°40'0 0.1
2015-Mar-01 18:28N 52°08' E 003°40'0 0.0
2015-Mar-01 17:19N 52°08' E 003°40'0 0.0
2015-Mar-01 16:22N 52°08' E 003°40'0 0.0
2015-Mar-01 15:31N 52°08' E 003°40'0 0.0
2015-Mar-01 14:16N 52°08' E 003°40'0 0.0
2015-Mar-01 13:31N 52°08' E 003°40'0 0.0
2015-Mar-01 12:31N 52°08' E 003°40'0 0.0
2015-Mar-01 11:13N 52°08' E 003°40'0 0.0
2015-Mar-01 10:31N 52°08' E 003°40'0 0.0
2015-Mar-01 08:31N 52°08' E 003°40'0 0.0
2015-Mar-01 07:22N 52°08' E 003°40'0 0.0
2015-Mar-01 06:16N 52°08' E 003°40'0 0.0
2015-Mar-01 05:22N 52°08' E 003°40'0 0.0
2015-Mar-01 04:25N 52°08' E 003°40'0 0.0
2015-Mar-01 03:31N 52°08' E 003°40'0 0.0
2015-Mar-01 01:31N 52°08' E 003°40'0 0.0
2015-Mar-01 00:31N 52°08' E 003°40'0 0.0
2015-Feb-28 23:28N 52°08' E 003°40'0 0.0
2015-Feb-28 22:19N 52°08' E 003°40'0 0.0
2015-Feb-28 21:31N 52°08' E 003°40'0 0.0
2015-Feb-28 20:04N 52°08' E 003°40'0 0.1
2015-Feb-28 19:31N 52°08' E 003°40'0 0.0
2015-Feb-28 18:25N 52°08' E 003°40'0 0.1
2015-Feb-28 17:31N 52°08' E 003°40'0 0.0
2015-Feb-28 16:28N 52°08' E 003°40'0 0.1
2015-Feb-28 15:31N 52°08' E 003°40'0 0.0
2015-Feb-28 14:28N 52°08' E 003°40'0 0.0
2015-Feb-28 13:28N 52°08' E 003°40'0 0.0
2015-Feb-28 12:31N 52°08' E 003°40'0 0.0
2015-Feb-28 11:33N 52°08' E 003°40'0 0.0
2015-Feb-28 10:27N 52°08' E 003°40'0 0.0
2015-Feb-28 09:14N 52°08' E 003°40'0 0.0
2015-Feb-28 08:29N 52°08' E 003°40'0 0.0
2015-Feb-28 07:33N 52°08' E 003°40'0 0.0
2015-Feb-28 06:32N 52°08' E 003°40'0 0.1
2015-Feb-28 05:29N 52°08' E 003°40'0 0.0
2015-Feb-28 04:29N 52°08' E 003°40'0 0.1
2015-Feb-28 03:18N 52°08' E 003°40'0 0.0
2015-Feb-28 02:27N 52°08' E 003°40'0 0.0
2015-Feb-28 01:33N 52°08' E 003°40'0 0.0
2015-Feb-28 00:03N 52°08' E 003°40'0 0.0
2015-Feb-27 23:30N 52°08' E 003°40'0 0.0
2015-Feb-27 22:24N 52°08' E 003°40'0 0.0
2015-Feb-27 21:33N 52°08' E 003°40'0 0.1
2015-Feb-27 20:21N 52°08' E 003°40'0 0.1
2015-Feb-27 19:33N 52°08' E 003°40'0 0.1
2015-Feb-27 18:33N 52°08' E 003°40'7 6.7
2015-Feb-27 17:26N 52°08' E 003°28'34411.4
2015-Feb-26 11:15N 57°14' E 007°58'7312.0
2015-Feb-26 05:09N 57°49' E 009°57'711.5
2015-Feb-26 04:31N 57°50' E 010°10'1212.0
2015-Feb-26 03:33N 57°49' E 010°32'1111.3
2015-Feb-26 02:33N 57°45' E 010°52'1313.0
2015-Feb-26 01:33N 57°36' E 011°10'1313.2
2015-Feb-26 00:33N 57°27' E 011°27'1313.0
2015-Feb-25 23:33N 57°15' E 011°35'1413.6
2015-Feb-25 22:33N 57°02' E 011°44'1413.7
2015-Feb-25 21:33N 56°49' E 011°52'1212.1
2015-Feb-25 20:34N 56°38' E 011°42'12111.8
2015-Feb-25 10:17N 54°41' E 010°47'1013.2
2015-Feb-25 09:34N 54°36' E 011°01'1313.1
2015-Feb-25 08:33N 54°33' E 011°23'1312.9
2015-Feb-25 07:33N 54°27' E 011°43'1212.5
2015-Feb-25 06:33N 54°26' E 012°05'1110.7
2015-Feb-25 05:33N 54°35' E 012°15'1010.1
2015-Feb-25 04:33N 54°41' E 012°29'1312.7
2015-Feb-25 03:33N 54°48' E 012°48'1312.9
2015-Feb-25 02:33N 54°53' E 013°08'1312.8
2015-Feb-25 01:33N 54°57' E 013°29'1212.6
2015-Feb-25 00:34N 55°01' E 013°50'1212.5
2015-Feb-24 23:33N 55°07' E 014°09'1312.9
2015-Feb-24 22:33N 55°17' E 014°24'1312.6
2015-Feb-24 21:33N 55°27' E 014°37'1212.2
2015-Feb-24 20:33N 55°32' E 014°57'1212.4
2015-Feb-24 19:33N 55°38' E 015°17'1312.6
2015-Feb-24 18:33N 55°41' E 015°38'33211.9
2015-Feb-23 14:33N 59°34' E 022°59'1312.6
2015-Feb-23 13:31N 59°37' E 023°24'1212.6
2015-Feb-23 12:33N 59°40' E 023°47'1512.6
2015-Feb-23 11:21N 59°44' E 024°16'911.4
2015-Feb-23 10:33N 59°44' E 024°34'1312.8
2015-Feb-23 09:33N 59°36' E 024°53'  
Track history (hours):
 
Tides and Currents Weather Stations Pressure Air Temp Water Temp Dewpoint Dewpoint Depression Visibility Wind Speed Wind Dir Waves Ship Positions

Pink Coral

Last reported at 2015-Mar-04 16:32 UTC. Time now 2015-Mar-04 22:48 UTC.
Position N 54°18' E 005°02'.

Length 183 m; draft 8.1 m.

Type: Tanker. MMSI: 249344000.

Date/timePositionNaut miles runAvg speedWind from/ knotsBaromVisibWave heightAir tempDewpointWater temp
2015-Mar-04 16:32N 54°18' E 005°02'1010.3
2015-Mar-04 15:32N 54°08' E 004°60'10 9.6
2015-Mar-04 14:31N 54°02' E 004°46'9910.5
2015-Mar-04 05:08N 52°33' E 003°35'4325.2
2015-Mar-04 03:25N 51°56' E 004°12'2023.0
2015-Mar-04 02:33N 52°05' E 003°44'9 8.8
2015-Mar-04 01:33N 52°01' E 003°57'1010.3
2015-Mar-04 00:33N 51°56' E 004°11'1 1.4
2015-Mar-03 23:31N 51°55' E 004°12'0 0.0
2015-Mar-03 22:31N 51°55' E 004°12'0 0.0
2015-Mar-03 21:32N 51°55' E 004°12'0 0.0
2015-Mar-03 20:32N 51°55' E 004°12'0 0.0
2015-Mar-03 19:29N 51°55' E 004°12'0 0.0
2015-Mar-03 18:31N 51°55' E 004°12'0 0.0
2015-Mar-03 17:31N 51°55' E 004°12'0 0.0
2015-Mar-03 16:29N 51°55' E 004°12'0 0.0
2015-Mar-03 15:31N 51°55' E 004°12'0 0.0
2015-Mar-03 14:32N 51°55' E 004°12'0 0.0
2015-Mar-03 13:31N 51°55' E 004°12'0 0.0
2015-Mar-03 12:31N 51°55' E 004°12'0 0.0
2015-Mar-03 11:28N 51°55' E 004°12'0 0.0
2015-Mar-03 10:28N 51°55' E 004°12'0 0.0
2015-Mar-03 09:31N 51°55' E 004°12'0 0.0
2015-Mar-03 08:32N 51°55' E 004°12'0 0.0
2015-Mar-03 07:31N 51°55' E 004°12'0 0.0
2015-Mar-03 06:31N 51°55' E 004°12'0 0.0
2015-Mar-03 05:25N 51°55' E 004°12'0 0.0
2015-Mar-03 04:31N 51°55' E 004°12'0 0.0
2015-Mar-03 03:31N 51°55' E 004°12'0 0.0
2015-Mar-03 02:31N 51°55' E 004°12'0 0.0
2015-Mar-03 01:28N 51°55' E 004°12'0 0.0
2015-Mar-03 00:31N 51°55' E 004°12'0 0.0
2015-Mar-02 23:31N 51°55' E 004°12'0 0.0
2015-Mar-02 22:31N 51°55' E 004°12'0 0.0
2015-Mar-02 21:31N 51°55' E 004°12'0 0.0
2015-Mar-02 20:31N 51°55' E 004°12'0 0.0
2015-Mar-02 19:28N 51°55' E 004°12'0 0.0
2015-Mar-02 18:31N 51°55' E 004°12'0 0.0
2015-Mar-02 17:31N 51°55' E 004°12'0 0.0
2015-Mar-02 16:31N 51°55' E 004°12'0 0.0
2015-Mar-02 15:31N 51°55' E 004°12'0 0.0
2015-Mar-02 14:31N 51°55' E 004°12'0 0.0
2015-Mar-02 13:28N 51°55' E 004°12'0 0.0
2015-Mar-02 12:31N 51°55' E 004°12'0 0.0
2015-Mar-02 11:31N 51°55' E 004°12'0 0.0
2015-Mar-02 10:31N 51°55' E 004°12'0 0.0
2015-Mar-02 09:31N 51°55' E 004°12'0 0.0
2015-Mar-02 08:33N 51°55' E 004°12'3 2.9
2015-Mar-02 07:33N 51°57' E 004°09'9 9.1
2015-Mar-02 06:33N 51°60' E 003°55'5 5.3
2015-Mar-02 05:33N 52°01' E 003°47'5 5.3
2015-Mar-02 04:33N 52°04' E 003°40'3 3.1
2015-Mar-02 03:33N 52°08' E 003°40'0 0.0
2015-Mar-02 02:30N 52°08' E 003°40'0 0.0
2015-Mar-02 01:24N 52°08' E 003°40'0 0.0
2015-Mar-02 00:33N 52°08' E 003°40'0 0.0
2015-Mar-01 23:28N 52°08' E 003°40'0 0.0
2015-Mar-01 22:28N 52°08' E 003°40'0 0.0
2015-Mar-01 21:19N 52°08' E 003°40'0 0.1
2015-Mar-01 20:31N 52°08' E 003°40'0 0.0
2015-Mar-01 19:31N 52°08' E 003°40'0 0.1
2015-Mar-01 18:28N 52°08' E 003°40'0 0.0
2015-Mar-01 17:19N 52°08' E 003°40'0 0.0
2015-Mar-01 16:22N 52°08' E 003°40'0 0.0
2015-Mar-01 15:31N 52°08' E 003°40'0 0.0
2015-Mar-01 14:16N 52°08' E 003°40'0 0.0
2015-Mar-01 13:31N 52°08' E 003°40'0 0.0
2015-Mar-01 12:31N 52°08' E 003°40'0 0.0
2015-Mar-01 11:13N 52°08' E 003°40'0 0.0
2015-Mar-01 10:31N 52°08' E 003°40'0 0.0
2015-Mar-01 08:31N 52°08' E 003°40'0 0.0
2015-Mar-01 07:22N 52°08' E 003°40'0 0.0
2015-Mar-01 06:16N 52°08' E 003°40'0 0.0
2015-Mar-01 05:22N 52°08' E 003°40'0 0.0
2015-Mar-01 04:25N 52°08' E 003°40'0 0.0
2015-Mar-01 03:31N 52°08' E 003°40'0 0.0
2015-Mar-01 01:31N 52°08' E 003°40'0 0.0
2015-Mar-01 00:31N 52°08' E 003°40'0 0.0
2015-Feb-28 23:28N 52°08' E 003°40'0 0.0
2015-Feb-28 22:19N 52°08' E 003°40'0 0.0
2015-Feb-28 21:31N 52°08' E 003°40'0 0.0
2015-Feb-28 20:04N 52°08' E 003°40'0 0.1
2015-Feb-28 19:31N 52°08' E 003°40'0 0.0
2015-Feb-28 18:25N 52°08' E 003°40'0 0.1
2015-Feb-28 17:31N 52°08' E 003°40'0 0.0
2015-Feb-28 16:28N 52°08' E 003°40'0 0.1
2015-Feb-28 15:31N 52°08' E 003°40'0 0.0
2015-Feb-28 14:28N 52°08' E 003°40'0 0.0
2015-Feb-28 13:28N 52°08' E 003°40'0 0.0
2015-Feb-28 12:31N 52°08' E 003°40'0 0.0
2015-Feb-28 11:33N 52°08' E 003°40'0 0.0
2015-Feb-28 10:27N 52°08' E 003°40'0 0.0
2015-Feb-28 09:14N 52°08' E 003°40'0 0.0
2015-Feb-28 08:29N 52°08' E 003°40'0 0.0
2015-Feb-28 07:33N 52°08' E 003°40'0 0.0
2015-Feb-28 06:32N 52°08' E 003°40'0 0.1
2015-Feb-28 05:29N 52°08' E 003°40'0 0.0
2015-Feb-28 04:29N 52°08' E 003°40'0 0.1
2015-Feb-28 03:18N 52°08' E 003°40'0 0.0
2015-Feb-28 02:27N 52°08' E 003°40'0 0.0
2015-Feb-28 01:33N 52°08' E 003°40'0 0.0
2015-Feb-28 00:03N 52°08' E 003°40'0 0.0
2015-Feb-27 23:30N 52°08' E 003°40'0 0.0
2015-Feb-27 22:24N 52°08' E 003°40'0 0.0
2015-Feb-27 21:33N 52°08' E 003°40'0 0.1
2015-Feb-27 20:21N 52°08' E 003°40'0 0.1
2015-Feb-27 19:33N 52°08' E 003°40'0 0.1
2015-Feb-27 18:33N 52°08' E 003°40'7 6.7
2015-Feb-27 17:26N 52°08' E 003°28'34411.4
2015-Feb-26 11:15N 57°14' E 007°58'7312.0
2015-Feb-26 05:09N 57°49' E 009°57'711.5
2015-Feb-26 04:31N 57°50' E 010°10'1212.0
2015-Feb-26 03:33N 57°49' E 010°32'1111.3
2015-Feb-26 02:33N 57°45' E 010°52'1313.0
2015-Feb-26 01:33N 57°36' E 011°10'1313.2
2015-Feb-26 00:33N 57°27' E 011°27'1313.0
2015-Feb-25 23:33N 57°15' E 011°35'1413.6
2015-Feb-25 22:33N 57°02' E 011°44'1413.7
2015-Feb-25 21:33N 56°49' E 011°52'1212.1
2015-Feb-25 20:34N 56°38' E 011°42'12111.8
2015-Feb-25 10:17N 54°41' E 010°47'1013.2
2015-Feb-25 09:34N 54°36' E 011°01'1313.1
2015-Feb-25 08:33N 54°33' E 011°23'1312.9
2015-Feb-25 07:33N 54°27' E 011°43'1212.5
2015-Feb-25 06:33N 54°26' E 012°05'1110.7
2015-Feb-25 05:33N 54°35' E 012°15'1010.1
2015-Feb-25 04:33N 54°41' E 012°29'1312.7
2015-Feb-25 03:33N 54°48' E 012°48'1312.9
2015-Feb-25 02:33N 54°53' E 013°08'1312.8
2015-Feb-25 01:33N 54°57' E 013°29'1212.6
2015-Feb-25 00:34N 55°01' E 013°50'1212.5
2015-Feb-24 23:33N 55°07' E 014°09'1312.9
2015-Feb-24 22:33N 55°17' E 014°24'1312.6
2015-Feb-24 21:33N 55°27' E 014°37'1212.2
2015-Feb-24 20:33N 55°32' E 014°57'1212.4
2015-Feb-24 19:33N 55°38' E 015°17'1312.6
2015-Feb-24 18:33N 55°41' E 015°38'33211.9
2015-Feb-23 14:33N 59°34' E 022°59'1312.6
2015-Feb-23 13:31N 59°37' E 023°24'1212.6
2015-Feb-23 12:33N 59°40' E 023°47'1512.6
2015-Feb-23 11:21N 59°44' E 024°16'911.4
2015-Feb-23 10:33N 59°44' E 024°34'1312.8
2015-Feb-23 09:33N 59°36' E 024°53'  

Dump ship's entire track history